createdAt,value
2022-11-12T00:00:53.771Z,3.03
2022-11-12T00:03:20.572Z,3.00
2022-11-12T00:05:47.197Z,2.96
2022-11-12T00:08:14.064Z,3.05
2022-11-12T00:10:40.733Z,3.03
2022-11-12T00:13:07.352Z,3.08
2022-11-12T00:15:34.246Z,3.01
2022-11-12T00:18:00.984Z,2.91
2022-11-12T00:20:27.581Z,2.89
2022-11-12T00:22:54.236Z,2.93
2022-11-12T00:25:20.939Z,2.98
2022-11-12T00:27:47.563Z,2.97
2022-11-12T00:30:14.199Z,2.95
2022-11-12T00:32:40.876Z,2.89
2022-11-12T00:35:12.518Z,2.93
2022-11-12T00:37:40.478Z,2.89
2022-11-12T00:40:08.046Z,2.89
2022-11-12T00:42:34.685Z,2.92
2022-11-12T00:45:01.362Z,2.94
2022-11-12T00:47:28.067Z,2.91
2022-11-12T00:49:54.722Z,2.88
2022-11-12T00:52:21.362Z,2.91
2022-11-12T00:54:48.223Z,3.00
2022-11-12T00:57:14.930Z,2.96
2022-11-12T00:59:41.677Z,2.88
2022-11-12T01:02:08.294Z,2.93
2022-11-12T01:04:35.035Z,2.91
2022-11-12T01:07:01.790Z,2.82
2022-11-12T01:09:28.561Z,2.95
2022-11-12T01:11:55.232Z,2.99
2022-11-12T01:14:21.964Z,2.94
2022-11-12T01:16:48.587Z,2.95
2022-11-12T01:19:15.295Z,2.85
2022-11-12T01:21:43.786Z,2.90
2022-11-12T01:24:11.405Z,2.82
2022-11-12T01:26:38.265Z,2.77
2022-11-12T01:29:05.272Z,2.75
2022-11-12T01:31:37.414Z,2.56
2022-11-12T01:34:07.363Z,2.67
2022-11-12T01:36:39.712Z,2.57
2022-11-12T01:39:08.065Z,2.54
2022-11-12T01:41:37.221Z,2.48
2022-11-12T01:44:10.473Z,2.44
2022-11-12T01:47:14.422Z,2.37
2022-11-12T01:49:54.077Z,2.32
2022-11-12T01:52:27.638Z,2.29
2022-11-12T01:54:56.025Z,2.35
2022-11-12T01:57:34.553Z,2.33
2022-11-12T02:00:06.226Z,2.27
2022-11-12T02:02:33.368Z,2.24
2022-11-12T02:05:00.955Z,2.23
2022-11-12T02:07:28.649Z,2.27
2022-11-12T02:09:55.365Z,2.20
2022-11-12T02:12:40.598Z,2.18
2022-11-12T02:15:07.748Z,2.18
2022-11-12T02:17:34.503Z,2.09
2022-11-12T02:20:01.782Z,2.12
2022-11-12T02:22:28.549Z,2.10
2022-11-12T02:24:55.277Z,2.03
2022-11-12T02:27:22.872Z,1.98
2022-11-12T02:29:49.584Z,2.09
2022-11-12T02:32:16.291Z,2.09
2022-11-12T02:34:43.012Z,2.14
2022-11-12T02:37:09.714Z,2.09
2022-11-12T02:39:36.575Z,2.11
2022-11-12T02:42:03.861Z,2.07
2022-11-12T02:44:31.384Z,2.17
2022-11-12T02:46:58.171Z,2.23
2022-11-12T02:49:24.882Z,2.30
2022-11-12T02:51:51.534Z,2.27
2022-11-12T02:54:18.201Z,2.10
2022-11-12T02:56:44.931Z,2.10
2022-11-12T02:59:11.551Z,2.21
2022-11-12T03:01:38.193Z,2.22
2022-11-12T03:04:04.887Z,2.30
2022-11-12T03:06:31.590Z,2.30
2022-11-12T03:08:58.315Z,2.39
2022-11-12T03:11:24.977Z,2.46
2022-11-12T03:13:51.587Z,2.47
2022-11-12T03:16:18.256Z,2.43
2022-11-12T03:18:44.933Z,2.31
2022-11-12T03:21:11.674Z,2.28
2022-11-12T03:23:38.378Z,2.30
2022-11-12T03:26:05.235Z,2.30
2022-11-12T03:28:32.452Z,2.26
2022-11-12T03:30:59.979Z,2.21
2022-11-12T03:33:26.746Z,2.20
2022-11-12T03:35:53.371Z,2.29
2022-11-12T03:38:20.132Z,2.20
2022-11-12T03:40:46.834Z,2.28
2022-11-12T03:43:13.537Z,2.26
2022-11-12T03:45:40.374Z,2.33
2022-11-12T03:48:07.206Z,2.17
2022-11-12T03:50:33.942Z,2.20
2022-11-12T03:53:00.585Z,2.14
2022-11-12T03:55:28.974Z,2.28
2022-11-12T03:57:56.694Z,2.26
2022-11-12T04:00:24.843Z,2.32
2022-11-12T04:02:51.594Z,2.35
2022-11-12T04:05:36.859Z,2.39
2022-11-12T04:08:37.652Z,2.42
2022-11-12T04:11:15.514Z,2.43
2022-11-12T04:13:45.650Z,2.36
2022-11-12T04:16:32.534Z,2.46
2022-11-12T04:19:19.563Z,2.24
2022-11-12T04:22:07.704Z,2.29
2022-11-12T04:24:57.405Z,2.28
2022-11-12T04:27:26.582Z,2.15
2022-11-12T04:30:12.125Z,2.28
2022-11-12T04:32:41.075Z,2.35
2022-11-12T04:35:09.665Z,2.19
2022-11-12T04:37:46.352Z,2.24
2022-11-12T04:40:57.675Z,2.23
2022-11-12T04:43:42.816Z,2.31
2022-11-12T04:46:09.863Z,2.28
2022-11-12T04:48:36.584Z,2.37
2022-11-12T04:51:25.005Z,2.37
2022-11-12T04:53:51.764Z,2.41
2022-11-12T04:56:18.434Z,2.29
2022-11-12T04:58:45.244Z,2.27
2022-11-12T05:01:12.002Z,2.34
2022-11-12T05:03:38.784Z,2.36
2022-11-12T05:06:24.865Z,2.41
2022-11-12T05:08:51.546Z,2.41
2022-11-12T05:11:18.274Z,2.38
2022-11-12T05:13:45.004Z,2.31
2022-11-12T05:16:11.724Z,2.25
2022-11-12T05:18:38.394Z,2.20
2022-11-12T05:21:25.081Z,2.16
2022-11-12T05:23:51.655Z,2.12
2022-11-12T05:26:18.307Z,2.10
2022-11-12T05:28:44.840Z,2.05
2022-11-12T05:31:11.445Z,2.03
2022-11-12T05:33:38.029Z,2.05
2022-11-12T05:36:04.784Z,1.92
2022-11-12T05:38:31.337Z,1.91
2022-11-12T05:40:57.906Z,2.02
2022-11-12T05:43:24.476Z,2.02
2022-11-12T05:45:51.032Z,1.94
2022-11-12T05:48:22.983Z,1.80
2022-11-12T05:51:11.862Z,1.99
2022-11-12T05:53:38.577Z,1.97
2022-11-12T05:56:06.967Z,1.93
2022-11-12T05:58:34.045Z,2.07
2022-11-12T06:01:00.648Z,2.08
2022-11-12T06:03:27.640Z,2.00
2022-11-12T06:05:54.383Z,1.98
2022-11-12T06:08:21.008Z,2.08
2022-11-12T06:10:54.744Z,2.06
2022-11-12T06:13:23.079Z,1.98
2022-11-12T06:15:49.904Z,1.85
2022-11-12T06:18:16.486Z,1.91
2022-11-12T06:20:43.078Z,1.90
2022-11-12T06:23:09.758Z,1.86
2022-11-12T06:25:36.310Z,1.86
2022-11-12T06:28:03.101Z,1.79
2022-11-12T06:30:29.694Z,1.85
2022-11-12T06:32:56.271Z,2.05
2022-11-12T06:35:22.845Z,2.14
2022-11-12T06:37:49.887Z,2.16
2022-11-12T06:40:16.568Z,2.04
2022-11-12T06:42:43.132Z,2.06
2022-11-12T06:45:10.261Z,2.16
2022-11-12T06:47:36.875Z,2.20
2022-11-12T06:50:03.938Z,2.07
2022-11-12T06:52:30.649Z,2.08
2022-11-12T06:54:57.289Z,1.94
2022-11-12T06:57:24.030Z,2.07
2022-11-12T06:59:50.632Z,2.14
2022-11-12T07:02:17.338Z,2.15
2022-11-12T07:04:43.936Z,2.06
2022-11-12T07:07:11.162Z,2.13
2022-11-12T07:09:38.090Z,2.08
2022-11-12T07:12:05.023Z,1.91
2022-11-12T07:14:31.599Z,1.82
2022-11-12T07:16:58.185Z,1.86
2022-11-12T07:19:24.779Z,1.93
2022-11-12T07:21:51.712Z,1.92
2022-11-12T07:24:18.355Z,1.91
2022-11-12T07:26:47.658Z,1.80
2022-11-12T07:29:29.994Z,1.80
2022-11-12T07:32:01.792Z,1.79
2022-11-12T07:34:28.418Z,1.78
2022-11-12T07:36:55.112Z,1.69
2022-11-12T07:39:21.758Z,1.90
2022-11-12T07:41:48.391Z,1.91
2022-11-12T07:44:15.092Z,1.94
2022-11-12T07:46:41.931Z,2.16
2022-11-12T07:49:08.502Z,2.27
2022-11-12T07:51:35.500Z,2.21
2022-11-12T07:54:02.129Z,2.12
2022-11-12T07:56:29.382Z,2.09
2022-11-12T07:58:56.103Z,1.98
2022-11-12T08:01:32.733Z,2.08
2022-11-12T08:04:00.480Z,2.17
2022-11-12T08:06:28.422Z,2.18
2022-11-12T08:08:55.995Z,2.14
2022-11-12T08:11:23.170Z,2.12
2022-11-12T08:13:50.949Z,2.09
2022-11-12T08:16:18.103Z,2.14
2022-11-12T08:18:45.632Z,2.42
2022-11-12T08:21:14.342Z,2.22
2022-11-12T08:23:41.444Z,2.26
2022-11-12T08:26:10.950Z,2.28
2022-11-12T08:28:37.961Z,2.19
2022-11-12T08:31:24.825Z,2.17
2022-11-12T08:33:51.599Z,2.20
2022-11-12T08:36:18.452Z,2.23
2022-11-12T08:38:45.551Z,2.29
2022-11-12T08:41:14.538Z,2.32
2022-11-12T08:43:43.246Z,2.36
2022-11-12T08:46:10.426Z,2.40
2022-11-12T08:48:37.569Z,2.48
2022-11-12T08:51:05.253Z,2.43
2022-11-12T08:53:32.179Z,2.24
2022-11-12T08:55:59.233Z,2.46
2022-11-12T08:58:27.023Z,2.51
2022-11-12T09:00:54.798Z,2.66
2022-11-12T09:03:23.520Z,2.69
2022-11-12T09:05:51.143Z,2.55
2022-11-12T09:08:20.615Z,2.41
2022-11-12T09:10:47.525Z,2.56
2022-11-12T09:13:14.504Z,2.68
2022-11-12T09:15:41.261Z,3.05
2022-11-12T09:18:12.325Z,2.83
2022-11-12T09:20:39.106Z,2.90
2022-11-12T09:23:14.408Z,3.02
2022-11-12T09:25:41.988Z,2.87
2022-11-12T09:28:10.686Z,2.89
2022-11-12T09:30:38.724Z,2.82
2022-11-12T09:33:05.375Z,2.95
2022-11-12T09:35:32.060Z,2.99
2022-11-12T09:37:59.688Z,2.93
2022-11-12T09:40:52.520Z,2.92
2022-11-12T09:43:25.660Z,3.05
2022-11-12T09:46:06.933Z,3.13
2022-11-12T09:48:44.804Z,3.01
2022-11-12T09:51:29.053Z,3.05
2022-11-12T09:53:58.156Z,2.79
2022-11-12T09:56:26.401Z,2.91
2022-11-12T09:58:54.000Z,3.06
2022-11-12T10:01:25.015Z,3.02
2022-11-12T10:04:05.182Z,3.12
2022-11-12T10:06:38.945Z,3.07
2022-11-12T10:09:12.271Z,3.12
2022-11-12T10:12:04.636Z,3.21
2022-11-12T10:14:52.303Z,3.33
2022-11-12T10:17:31.414Z,3.35
2022-11-12T10:20:35.918Z,3.66
2022-11-12T10:23:11.311Z,3.59
2022-11-12T10:25:38.444Z,3.48
2022-11-12T10:28:27.756Z,3.53
2022-11-12T10:31:02.024Z,3.33
2022-11-12T10:33:33.450Z,3.30
2022-11-12T10:36:23.850Z,3.43
2022-11-12T10:38:53.742Z,3.54
2022-11-12T10:41:22.342Z,3.52
2022-11-12T10:43:57.830Z,3.48
2022-11-12T10:46:36.343Z,3.40
2022-11-12T10:49:05.994Z,3.49
2022-11-12T10:51:37.445Z,3.57
2022-11-12T10:54:36.513Z,3.76
2022-11-12T10:57:24.944Z,3.79
2022-11-12T11:00:15.680Z,3.77
2022-11-12T11:02:53.563Z,3.91
2022-11-12T11:05:33.032Z,3.86
2022-11-12T11:08:00.062Z,3.82
2022-11-12T11:10:29.731Z,4.04
2022-11-12T11:13:17.832Z,4.18
2022-11-12T11:15:57.682Z,4.25
2022-11-12T11:18:24.900Z,4.28
2022-11-12T11:21:08.253Z,4.14
2022-11-12T11:23:54.383Z,4.18
2022-11-12T11:26:54.492Z,4.23
2022-11-12T11:29:29.462Z,4.30
2022-11-12T11:32:07.733Z,4.29
2022-11-12T11:34:43.472Z,4.29
2022-11-12T11:37:28.120Z,4.54
2022-11-12T11:40:25.571Z,4.27
2022-11-12T11:43:12.642Z,4.11
2022-11-12T11:45:54.282Z,3.97
2022-11-12T11:48:24.127Z,4.08
2022-11-12T11:51:04.894Z,4.20
2022-11-12T11:53:58.606Z,4.26
2022-11-12T11:56:37.949Z,4.29
2022-11-12T11:59:15.552Z,4.29
2022-11-12T12:02:11.724Z,4.24
2022-11-12T12:05:10.342Z,4.16
2022-11-12T12:07:55.333Z,4.31
2022-11-12T12:11:01.106Z,4.36
2022-11-12T12:13:30.732Z,4.38
2022-11-12T12:16:01.633Z,4.65
2022-11-12T12:18:34.578Z,4.71
2022-11-12T12:21:13.522Z,4.58
2022-11-12T12:23:57.958Z,4.64
2022-11-12T12:26:29.672Z,4.64
2022-11-12T12:29:19.353Z,4.81
2022-11-12T12:31:58.752Z,5.08
2022-11-12T12:34:33.763Z,5.17
2022-11-12T12:37:33.593Z,4.91
2022-11-12T12:40:06.381Z,4.92
2022-11-12T12:42:59.410Z,5.10
2022-11-12T12:45:36.139Z,5.10
2022-11-12T12:48:05.440Z,4.99
2022-11-12T12:50:33.122Z,5.01
2022-11-12T12:53:00.883Z,4.87
2022-11-12T12:55:46.132Z,4.86
2022-11-12T12:58:18.772Z,4.97
2022-11-12T13:00:51.136Z,4.99
2022-11-12T13:03:53.139Z,5.22
2022-11-12T13:06:24.100Z,5.45
2022-11-12T13:09:17.447Z,5.47
2022-11-12T13:12:02.412Z,5.46
2022-11-12T13:14:31.924Z,5.34
2022-11-12T13:17:00.491Z,5.36
2022-11-12T13:19:36.815Z,5.06
2022-11-12T13:22:18.586Z,5.10
2022-11-12T13:25:01.925Z,5.22
2022-11-12T13:27:43.632Z,5.06
2022-11-12T13:30:30.669Z,5.23
2022-11-12T13:32:58.822Z,5.07
2022-11-12T13:35:30.598Z,4.95
2022-11-12T13:38:15.720Z,5.00
2022-11-12T13:41:05.729Z,5.07
2022-11-12T13:43:47.580Z,4.99
2022-11-12T13:46:32.109Z,5.19
2022-11-12T13:49:09.763Z,5.10
2022-11-12T13:51:47.400Z,5.17
2022-11-12T13:54:43.512Z,4.92
2022-11-12T13:57:20.292Z,4.85
2022-11-12T13:59:47.804Z,4.94
2022-11-12T14:02:22.632Z,4.90
2022-11-12T14:04:50.064Z,4.88
2022-11-12T14:07:34.782Z,4.86
2022-11-12T14:10:23.403Z,5.01
2022-11-12T14:13:17.623Z,5.17
2022-11-12T14:16:02.844Z,4.90
2022-11-12T14:18:43.163Z,4.92
2022-11-12T14:21:16.616Z,5.02
2022-11-12T14:23:48.162Z,5.02
2022-11-12T14:26:37.032Z,4.84
2022-11-12T14:29:03.744Z,4.78
2022-11-12T14:31:30.433Z,4.86
2022-11-12T14:33:57.239Z,4.92
2022-11-12T14:36:24.261Z,5.03
2022-11-12T14:38:55.602Z,5.07
2022-11-12T14:41:25.902Z,5.11
2022-11-12T14:44:11.461Z,5.11
2022-11-12T14:46:50.582Z,5.10
2022-11-12T14:49:19.873Z,5.08
2022-11-12T14:51:51.627Z,5.10
2022-11-12T14:54:31.463Z,4.95
2022-11-12T14:56:58.988Z,4.90
2022-11-12T14:59:25.662Z,4.91
2022-11-12T15:02:42.254Z,4.68
2022-11-12T15:05:15.483Z,4.64
2022-11-12T15:08:01.155Z,4.65
2022-11-12T15:10:39.903Z,4.71
2022-11-12T15:13:15.725Z,4.80
2022-11-12T15:15:55.310Z,4.69
2022-11-12T15:18:24.634Z,4.73
2022-11-12T15:21:12.763Z,4.77
2022-11-12T15:24:18.273Z,4.82
2022-11-12T15:26:47.763Z,4.80
2022-11-12T15:29:24.861Z,4.82
2022-11-12T15:31:54.464Z,4.75
2022-11-12T15:34:28.350Z,4.65
2022-11-12T15:36:56.283Z,4.63
2022-11-12T15:39:23.911Z,4.60
2022-11-12T15:42:00.870Z,4.53
2022-11-12T15:44:32.161Z,4.49
2022-11-12T15:46:59.162Z,4.46
2022-11-12T15:49:25.816Z,4.45
2022-11-12T15:51:52.443Z,4.35
2022-11-12T15:54:19.132Z,4.30
2022-11-12T15:56:46.142Z,4.25
2022-11-12T15:59:15.793Z,4.33
2022-11-12T16:01:43.243Z,4.19
2022-11-12T16:04:13.354Z,4.10
2022-11-12T16:06:40.185Z,4.08
2022-11-12T16:09:06.992Z,4.01
2022-11-12T16:11:36.635Z,3.94
2022-11-12T16:14:10.638Z,3.82
2022-11-12T16:16:39.323Z,3.64
2022-11-12T16:19:14.640Z,3.61
2022-11-12T16:21:41.564Z,3.42
2022-11-12T16:24:08.612Z,3.49
2022-11-12T16:26:35.973Z,3.44
2022-11-12T16:29:04.074Z,3.36
2022-11-12T16:31:30.703Z,3.26
2022-11-12T16:33:57.275Z,3.34
2022-11-12T16:36:24.021Z,3.30
2022-11-12T16:38:50.702Z,3.31
2022-11-12T16:41:17.438Z,3.26
2022-11-12T16:43:44.180Z,3.19
2022-11-12T16:46:19.235Z,3.14
2022-11-12T16:48:45.903Z,3.02
2022-11-12T16:51:17.582Z,2.85
2022-11-12T16:53:44.701Z,2.94
2022-11-12T16:56:18.207Z,2.79
2022-11-12T16:58:45.013Z,2.65
2022-11-12T17:01:31.650Z,2.65
2022-11-12T17:03:58.912Z,2.64
2022-11-12T17:06:37.356Z,2.68
2022-11-12T17:09:06.347Z,2.53
2022-11-12T17:11:33.856Z,2.48
2022-11-12T17:14:04.760Z,2.57
2022-11-12T17:16:31.733Z,2.58
2022-11-12T17:18:59.502Z,2.67
2022-11-12T17:21:26.124Z,2.72
2022-11-12T17:23:54.941Z,2.70
2022-11-12T17:26:22.311Z,2.63
2022-11-12T17:28:53.895Z,2.49
2022-11-12T17:31:24.600Z,2.66
2022-11-12T17:33:52.821Z,2.57
2022-11-12T17:36:21.945Z,2.50
2022-11-12T17:38:48.887Z,2.51
2022-11-12T17:41:15.644Z,2.50
2022-11-12T17:43:42.312Z,2.55
2022-11-12T17:46:09.747Z,2.50
2022-11-12T17:48:37.753Z,2.65
2022-11-12T17:51:13.023Z,2.53
2022-11-12T17:53:40.029Z,2.54
2022-11-12T17:56:07.743Z,2.57
2022-11-12T17:58:34.613Z,2.63
2022-11-12T18:01:15.441Z,2.64
2022-11-12T18:03:44.072Z,2.67
2022-11-12T18:06:12.792Z,2.71
2022-11-12T18:08:40.583Z,2.54
2022-11-12T18:11:08.909Z,2.66
2022-11-12T18:13:35.624Z,2.69
2022-11-12T18:16:02.813Z,2.70
2022-11-12T18:18:30.121Z,2.49
2022-11-12T18:20:57.247Z,2.65
2022-11-12T18:23:24.157Z,2.68
2022-11-12T18:25:51.424Z,2.77
2022-11-12T18:28:18.131Z,2.75
2022-11-12T18:30:44.875Z,2.68
2022-11-12T18:33:12.281Z,2.73
2022-11-12T18:35:38.991Z,2.60
2022-11-12T18:38:05.678Z,2.47
2022-11-12T18:40:32.351Z,2.38
2022-11-12T18:42:59.106Z,2.41
2022-11-12T18:45:25.855Z,2.32
2022-11-12T18:47:52.633Z,2.36
2022-11-12T18:50:19.383Z,2.48
2022-11-12T18:52:46.156Z,2.41
2022-11-12T18:55:12.845Z,2.40
2022-11-12T18:57:39.503Z,2.44
2022-11-12T19:00:06.644Z,2.39
2022-11-12T19:02:33.324Z,2.53
2022-11-12T19:05:00.011Z,2.36
2022-11-12T19:07:26.703Z,2.24
2022-11-12T19:09:53.362Z,2.32
2022-11-12T19:12:20.061Z,2.15
2022-11-12T19:14:46.801Z,2.08
2022-11-12T19:17:13.551Z,2.21
2022-11-12T19:19:40.300Z,2.19
2022-11-12T19:22:07.043Z,2.30
2022-11-12T19:24:33.783Z,2.28
2022-11-12T19:27:00.471Z,2.24
2022-11-12T19:29:27.183Z,2.31
2022-11-12T19:31:54.151Z,2.25
2022-11-12T19:34:20.860Z,2.26
2022-11-12T19:36:48.497Z,2.22
2022-11-12T19:39:19.842Z,2.22
2022-11-12T19:41:46.551Z,2.25
2022-11-12T19:44:13.233Z,2.24
2022-11-12T19:46:39.913Z,2.21
2022-11-12T19:49:06.492Z,2.24
2022-11-12T19:51:33.201Z,2.16
2022-11-12T19:53:59.855Z,2.09
2022-11-12T19:56:27.699Z,1.94
2022-11-12T19:58:55.090Z,1.93
2022-11-12T20:01:21.969Z,2.07
2022-11-12T20:03:48.723Z,2.12
2022-11-12T20:06:17.837Z,2.13
2022-11-12T20:08:44.702Z,2.05
2022-11-12T20:11:11.668Z,2.02
2022-11-12T20:13:38.375Z,1.95
2022-11-12T20:16:24.741Z,1.98
2022-11-12T20:18:55.822Z,2.05
2022-11-12T20:21:23.773Z,2.10
2022-11-12T20:23:50.464Z,2.18
2022-11-12T20:26:17.250Z,2.22
2022-11-12T20:28:44.161Z,2.27
2022-11-12T20:31:13.442Z,2.26
2022-11-12T20:33:42.708Z,2.16
2022-11-12T20:36:12.525Z,2.24
2022-11-12T20:38:40.625Z,2.33
2022-11-12T20:41:12.941Z,2.08
2022-11-12T20:43:39.568Z,1.98
2022-11-12T20:46:06.362Z,1.95
2022-11-12T20:48:33.040Z,1.86
2022-11-12T20:51:24.647Z,1.89
2022-11-12T20:54:00.099Z,1.86
2022-11-12T20:56:29.332Z,1.86
2022-11-12T20:58:56.596Z,1.82
2022-11-12T21:01:24.800Z,1.79
2022-11-12T21:03:51.973Z,1.87
2022-11-12T21:06:21.357Z,1.84
2022-11-12T21:08:48.166Z,1.97
2022-11-12T21:11:17.256Z,2.09
2022-11-12T21:13:44.083Z,2.05
2022-11-12T21:16:11.804Z,2.13
2022-11-12T21:18:39.136Z,1.94
2022-11-12T21:21:10.832Z,1.96
2022-11-12T21:23:39.124Z,1.88
2022-11-12T21:26:08.019Z,1.77
2022-11-12T21:28:38.211Z,1.68
2022-11-12T21:31:06.549Z,1.75
2022-11-12T21:33:33.455Z,1.87
2022-11-12T21:36:00.194Z,1.90
2022-11-12T21:38:27.969Z,1.84
2022-11-12T21:41:05.066Z,1.84
2022-11-12T21:43:32.360Z,1.94
2022-11-12T21:45:59.422Z,2.08
2022-11-12T21:48:26.438Z,2.02
2022-11-12T21:50:53.293Z,1.95
2022-11-12T21:53:19.991Z,1.93
2022-11-12T21:55:46.691Z,1.96
2022-11-12T21:58:13.344Z,1.87
2022-11-12T22:00:42.074Z,1.84
2022-11-12T22:03:09.335Z,1.78
2022-11-12T22:05:37.208Z,1.76
2022-11-12T22:08:04.083Z,1.72
2022-11-12T22:10:30.689Z,1.73
2022-11-12T22:13:25.500Z,1.61
2022-11-12T22:15:44.062Z,1.78
2022-11-12T22:18:10.795Z,1.73
2022-11-12T22:20:37.402Z,1.65
2022-11-12T22:23:04.007Z,1.71
2022-11-12T22:25:30.629Z,1.69
2022-11-12T22:27:57.358Z,1.85
2022-11-12T22:30:23.931Z,1.95
2022-11-12T22:32:50.554Z,1.94
2022-11-12T22:35:17.079Z,1.93
2022-11-12T22:37:43.798Z,1.87
2022-11-12T22:40:13.518Z,1.94
2022-11-12T22:42:40.423Z,1.95
2022-11-12T22:45:07.881Z,1.90
2022-11-12T22:47:34.504Z,2.03
2022-11-12T22:50:01.233Z,2.01
2022-11-12T22:52:27.840Z,2.08
2022-11-12T22:54:54.464Z,2.01
2022-11-12T22:57:21.088Z,1.89
2022-11-12T22:59:47.850Z,1.67
2022-11-12T23:02:14.489Z,1.83
2022-11-12T23:04:41.573Z,1.85
2022-11-12T23:07:08.479Z,1.94
2022-11-12T23:09:35.216Z,1.91
2022-11-12T23:12:01.842Z,1.69
2022-11-12T23:14:28.491Z,1.73
2022-11-12T23:16:58.910Z,1.72
2022-11-12T23:19:25.558Z,1.58
2022-11-12T23:21:52.316Z,1.66
2022-11-12T23:24:19.259Z,1.79
2022-11-12T23:26:45.843Z,1.85
2022-11-12T23:29:12.847Z,1.86
2022-11-12T23:31:40.269Z,1.78
2022-11-12T23:34:06.851Z,1.79
2022-11-12T23:36:33.462Z,1.84
2022-11-12T23:39:01.086Z,1.80
2022-11-12T23:41:28.067Z,1.82
2022-11-12T23:43:56.204Z,1.85
2022-11-12T23:46:23.188Z,1.80
2022-11-12T23:48:50.123Z,2.00
2022-11-12T23:51:21.289Z,1.86
2022-11-12T23:53:49.044Z,1.79
2022-11-12T23:56:17.433Z,1.77
2022-11-12T23:58:44.072Z,1.80
